createdAt,value
2022-08-12T00:00:55.179Z,1.38
2022-08-12T00:03:40.771Z,1.30
2022-08-12T00:06:26.543Z,1.30
2022-08-12T00:09:12.007Z,1.63
2022-08-12T00:11:57.228Z,1.63
2022-08-12T00:14:43.591Z,1.60
2022-08-12T00:17:29.207Z,1.55
2022-08-12T00:20:14.613Z,1.52
2022-08-12T00:23:00.347Z,1.50
2022-08-12T00:26:21.103Z,1.60
2022-08-12T00:29:02.540Z,1.35
2022-08-12T00:31:49.614Z,1.30
2022-08-12T00:34:35.642Z,1.60
2022-08-12T00:37:21.013Z,1.30
2022-08-12T00:40:10.830Z,1.30
2022-08-12T00:42:41.245Z,1.90
2022-08-12T00:45:10.234Z,1.38
2022-08-12T00:47:40.668Z,1.42
2022-08-12T00:50:17.612Z,1.58
2022-08-12T00:52:46.541Z,1.50
2022-08-12T00:55:14.499Z,1.52
2022-08-12T00:57:47.767Z,1.48
2022-08-12T01:00:18.412Z,1.52
2022-08-12T01:02:52.049Z,1.65
2022-08-12T01:05:39.436Z,1.50
2022-08-12T01:08:25.357Z,1.60
2022-08-12T01:11:13.009Z,1.55
2022-08-12T01:13:42.455Z,1.63
2022-08-12T01:16:10.609Z,1.40
2022-08-12T01:18:41.552Z,1.38
2022-08-12T01:21:13.234Z,1.17
2022-08-12T01:23:50.240Z,1.33
2022-08-12T01:26:23.220Z,1.45
2022-08-12T01:28:53.801Z,1.35
2022-08-12T01:31:24.104Z,1.52
2022-08-12T01:33:59.640Z,1.42
2022-08-12T01:36:28.947Z,1.33
2022-08-12T01:38:59.015Z,1.30
2022-08-12T01:41:30.826Z,1.30
2022-08-12T01:44:00.936Z,1.23
2022-08-12T01:46:40.319Z,1.45
2022-08-12T01:49:21.723Z,1.33
2022-08-12T01:52:19.980Z,1.40
2022-08-12T01:54:47.064Z,1.15
2022-08-12T01:57:58.636Z,1.50
2022-08-12T02:00:12.169Z,1.63
2022-08-12T02:02:41.673Z,1.20
2022-08-12T02:05:35.018Z,1.50
2022-08-12T02:08:36.178Z,1.40
2022-08-12T02:11:17.298Z,1.58
2022-08-12T02:14:00.632Z,1.38
2022-08-12T02:16:39.923Z,1.20
2022-08-12T02:19:25.720Z,1.45
2022-08-12T02:21:59.785Z,1.95
2022-08-12T02:24:31.188Z,1.40
2022-08-12T02:26:59.603Z,1.55
2022-08-12T02:29:29.105Z,1.40
2022-08-12T02:31:59.121Z,1.30
2022-08-12T02:34:27.616Z,1.60
2022-08-12T02:36:55.983Z,1.52
2022-08-12T02:39:26.938Z,1.50
2022-08-12T02:41:56.048Z,1.80
2022-08-12T02:44:24.737Z,1.55
2022-08-12T02:46:55.469Z,1.52
2022-08-12T02:49:25.838Z,1.38
2022-08-12T02:51:54.848Z,1.48
2022-08-12T02:54:23.585Z,1.48
2022-08-12T02:56:52.350Z,1.30
2022-08-12T02:59:22.931Z,1.70
2022-08-12T03:01:54.233Z,1.70
2022-08-12T03:04:27.453Z,1.70
2022-08-12T03:07:03.705Z,1.92
2022-08-12T03:09:51.505Z,1.30
2022-08-12T03:12:25.446Z,7.25
2022-08-12T03:14:55.925Z,4.43
2022-08-12T03:17:29.202Z,3.05
2022-08-12T03:20:10.104Z,3.17
2022-08-12T03:22:40.951Z,3.00
2022-08-12T03:25:17.045Z,3.13
2022-08-12T03:27:49.641Z,2.85
2022-08-12T03:30:18.798Z,3.45
2022-08-12T03:32:48.822Z,2.22
2022-08-12T03:35:41.500Z,2.58
2022-08-12T03:38:12.122Z,2.22
2022-08-12T03:41:13.271Z,2.00
2022-08-12T03:44:04.817Z,2.15
2022-08-12T03:46:52.472Z,2.38
2022-08-12T03:49:37.623Z,1.80
2022-08-12T03:52:25.213Z,2.20
2022-08-12T03:55:10.713Z,2.85
2022-08-12T03:57:55.827Z,2.13
2022-08-12T04:00:24.652Z,2.70
2022-08-12T04:02:58.972Z,1.90
2022-08-12T04:05:54.750Z,1.60
2022-08-12T04:08:16.689Z,3.50
2022-08-12T04:11:03.337Z,3.55
2022-08-12T04:13:31.185Z,3.22
2022-08-12T04:16:03.048Z,1.98
2022-08-12T04:18:30.756Z,2.03
2022-08-12T04:20:59.087Z,2.22
2022-08-12T04:23:28.697Z,2.15
2022-08-12T04:25:56.403Z,2.20
2022-08-12T04:28:27.731Z,2.10
2022-08-12T04:30:57.958Z,1.80
2022-08-12T04:33:26.940Z,2.20
2022-08-12T04:35:55.049Z,2.40
2022-08-12T04:38:24.460Z,2.13
2022-08-12T04:40:53.687Z,1.85
2022-08-12T04:44:00.206Z,2.05
2022-08-12T04:46:09.351Z,1.75
2022-08-12T04:48:37.068Z,1.88
2022-08-12T04:51:06.717Z,2.10
2022-08-12T04:53:34.875Z,2.00
2022-08-12T04:56:05.504Z,2.55
2022-08-12T04:58:34.154Z,2.33
2022-08-12T05:01:03.082Z,3.33
2022-08-12T05:03:46.659Z,2.20
2022-08-12T05:06:26.932Z,2.20
2022-08-12T05:08:55.705Z,2.20
2022-08-12T05:11:27.680Z,2.30
2022-08-12T05:13:59.311Z,2.22
2022-08-12T05:16:31.116Z,2.28
2022-08-12T05:19:03.025Z,2.53
2022-08-12T05:21:30.700Z,5.82
2022-08-12T05:23:58.453Z,2.42
2022-08-12T05:26:41.996Z,2.00
2022-08-12T05:30:06.824Z,2.22
2022-08-12T05:32:04.297Z,2.33
2022-08-12T05:34:32.298Z,2.15
2022-08-12T05:37:00.405Z,2.33
2022-08-12T05:39:28.798Z,2.40
2022-08-12T05:41:57.888Z,2.38
2022-08-12T05:44:25.629Z,2.00
2022-08-12T05:46:53.401Z,2.45
2022-08-12T05:49:21.157Z,2.42
2022-08-12T05:51:48.956Z,2.35
2022-08-12T05:54:16.826Z,2.20
2022-08-12T05:56:45.516Z,2.30
2022-08-12T05:59:14.835Z,1.90
2022-08-12T06:02:09.383Z,2.38
2022-08-12T06:04:32.147Z,2.35
2022-08-12T06:07:48.732Z,2.45
2022-08-12T06:09:50.732Z,2.10
2022-08-12T06:12:23.630Z,2.58
2022-08-12T06:14:55.007Z,2.72
2022-08-12T06:17:22.962Z,3.55
2022-08-12T06:20:26.034Z,5.40
2022-08-12T06:22:39.572Z,4.82
2022-08-12T06:25:08.168Z,4.78
2022-08-12T06:27:43.109Z,4.72
2022-08-12T06:30:38.448Z,4.53
2022-08-12T06:33:21.971Z,3.92
2022-08-12T06:35:51.851Z,3.28
2022-08-12T06:38:21.306Z,3.30
2022-08-12T06:41:08.775Z,3.35
2022-08-12T06:44:04.760Z,3.50
2022-08-12T06:46:26.897Z,2.90
2022-08-12T06:48:58.704Z,3.30
2022-08-12T06:51:28.361Z,3.35
2022-08-12T06:53:57.830Z,2.88
2022-08-12T06:56:40.202Z,2.55
2022-08-12T06:59:14.071Z,2.00
2022-08-12T07:01:49.856Z,1.90
2022-08-12T07:04:37.503Z,2.10
2022-08-12T07:07:07.334Z,2.17
2022-08-12T07:10:03.957Z,2.03
2022-08-12T07:12:22.903Z,2.60
2022-08-12T07:14:56.253Z,2.40
2022-08-12T07:17:25.458Z,2.85
2022-08-12T07:19:53.643Z,2.00
2022-08-12T07:22:23.110Z,2.40
2022-08-12T07:25:11.349Z,2.10
2022-08-12T07:27:40.579Z,1.85
2022-08-12T07:30:09.892Z,2.05
2022-08-12T07:32:39.117Z,1.80
2022-08-12T07:35:07.791Z,2.00
2022-08-12T07:37:41.447Z,2.08
2022-08-12T07:40:11.524Z,2.17
2022-08-12T07:42:39.898Z,1.80
2022-08-12T07:45:09.405Z,2.03
2022-08-12T07:47:37.832Z,3.25
2022-08-12T07:50:09.237Z,2.35
2022-08-12T07:52:39.089Z,2.00
2022-08-12T07:55:08.356Z,2.33
2022-08-12T07:57:37.124Z,2.42
2022-08-12T08:00:06.343Z,2.13
2022-08-12T08:02:35.651Z,1.83
2022-08-12T08:05:04.079Z,2.05
2022-08-12T08:07:33.398Z,3.15
2022-08-12T08:10:03.499Z,2.25
2022-08-12T08:12:48.705Z,2.22
2022-08-12T08:15:16.810Z,2.15
2022-08-12T08:17:56.477Z,1.92
2022-08-12T08:20:28.813Z,1.98
2022-08-12T08:22:59.269Z,1.67
2022-08-12T08:25:35.581Z,1.92
2022-08-12T08:28:06.747Z,1.85
2022-08-12T08:30:35.135Z,2.10
2022-08-12T08:33:02.916Z,2.10
2022-08-12T08:35:48.300Z,1.90
2022-08-12T08:38:30.076Z,2.00
2022-08-12T08:42:15.682Z,1.92
2022-08-12T08:44:05.761Z,1.85
2022-08-12T08:46:37.249Z,1.85
2022-08-12T08:49:05.173Z,1.80
2022-08-12T08:51:33.245Z,2.00
2022-08-12T08:54:02.415Z,1.92
2022-08-12T08:56:30.260Z,1.98
2022-08-12T08:58:58.478Z,2.17
2022-08-12T09:01:26.261Z,1.80
2022-08-12T09:05:09.309Z,1.60
2022-08-12T09:06:53.664Z,1.80
2022-08-12T09:09:23.809Z,1.70
2022-08-12T09:12:12.264Z,1.55
2022-08-12T09:14:43.478Z,2.05
2022-08-12T09:17:20.941Z,1.45
2022-08-12T09:19:53.632Z,1.70
2022-08-12T09:22:29.216Z,1.67
2022-08-12T09:25:01.236Z,1.70
2022-08-12T09:27:57.645Z,1.70
2022-08-12T09:30:42.083Z,1.70
2022-08-12T09:33:18.944Z,1.48
2022-08-12T09:36:04.911Z,1.60
2022-08-12T09:38:35.221Z,1.77
2022-08-12T09:42:33.883Z,1.40
2022-08-12T09:44:37.943Z,1.52
2022-08-12T09:46:58.777Z,1.80
2022-08-12T09:49:28.114Z,1.65
2022-08-12T09:51:57.141Z,1.77
2022-08-12T09:54:32.957Z,1.63
2022-08-12T09:58:47.139Z,1.85
2022-08-12T10:00:16.687Z,1.90
2022-08-12T10:03:00.323Z,1.58
2022-08-12T10:06:27.094Z,1.83
2022-08-12T10:08:27.334Z,1.77
2022-08-12T10:11:20.190Z,1.58
2022-08-12T10:13:52.738Z,1.55
2022-08-12T10:16:23.079Z,1.85
2022-08-12T10:18:54.479Z,1.48
2022-08-12T10:21:36.480Z,1.83
2022-08-12T10:24:06.091Z,1.52
2022-08-12T10:26:52.100Z,1.77
2022-08-12T10:30:39.036Z,1.85
2022-08-12T10:32:43.766Z,1.80
2022-08-12T10:35:15.435Z,1.83
2022-08-12T10:38:33.281Z,1.40
2022-08-12T10:40:33.951Z,1.50
2022-08-12T10:43:19.800Z,1.33
2022-08-12T10:45:53.178Z,1.52
2022-08-12T10:48:26.754Z,1.80
2022-08-12T10:50:58.558Z,1.60
2022-08-12T10:53:45.129Z,1.48
2022-08-12T10:56:15.208Z,1.67
2022-08-12T10:58:46.028Z,1.60
2022-08-12T11:01:49.165Z,1.48
2022-08-12T11:04:25.624Z,1.63
2022-08-12T11:07:08.744Z,1.60
2022-08-12T11:10:00.305Z,1.75
2022-08-12T11:12:54.769Z,1.60
2022-08-12T11:15:32.838Z,2.10
2022-08-12T11:18:12.108Z,1.40
2022-08-12T11:20:47.866Z,1.40
2022-08-12T11:23:24.954Z,1.58
2022-08-12T11:26:05.890Z,1.60
2022-08-12T11:28:37.272Z,1.35
2022-08-12T11:31:12.229Z,1.52
2022-08-12T11:34:04.729Z,1.35
2022-08-12T11:36:31.336Z,1.50
2022-08-12T11:39:02.320Z,1.92
2022-08-12T11:41:33.563Z,2.83
2022-08-12T11:44:35.278Z,1.75
2022-08-12T11:46:51.233Z,1.40
2022-08-12T11:49:31.199Z,1.50
2022-08-12T11:52:03.078Z,1.42
2022-08-12T11:54:31.322Z,1.60
2022-08-12T11:57:00.525Z,1.52
2022-08-12T12:02:20.139Z,1.60
2022-08-12T12:04:52.843Z,1.58
2022-08-12T12:07:34.023Z,1.45
2022-08-12T12:10:11.872Z,1.60
2022-08-12T12:12:41.566Z,1.35
2022-08-12T12:15:25.475Z,1.50
2022-08-12T12:18:05.368Z,1.25
2022-08-12T12:20:35.398Z,1.67
2022-08-12T12:23:04.536Z,1.30
2022-08-12T12:26:07.291Z,1.42
2022-08-12T12:28:37.173Z,1.63
2022-08-12T12:31:14.649Z,1.42
2022-08-12T12:33:57.731Z,1.55
2022-08-12T12:36:29.930Z,1.30
2022-08-12T12:39:00.080Z,1.63
2022-08-12T12:42:43.458Z,1.55
2022-08-12T12:44:25.740Z,1.50
2022-08-12T12:46:58.216Z,1.40
2022-08-12T12:49:26.096Z,1.40
2022-08-12T12:52:18.685Z,1.52
2022-08-12T12:54:52.439Z,1.13
2022-08-12T12:57:36.420Z,1.70
2022-08-12T13:00:18.837Z,1.30
2022-08-12T13:02:55.482Z,1.45
2022-08-12T13:05:28.015Z,1.30
2022-08-12T13:08:00.765Z,1.30
2022-08-12T13:10:36.560Z,1.50
2022-08-12T13:14:06.396Z,1.45
2022-08-12T13:15:53.774Z,1.30
2022-08-12T13:18:33.371Z,1.27
2022-08-12T13:21:03.989Z,1.48
2022-08-12T13:23:35.906Z,1.50
2022-08-12T13:26:05.401Z,1.33
2022-08-12T13:28:33.504Z,1.42
2022-08-12T13:31:02.901Z,1.40
2022-08-12T13:34:29.671Z,1.30
2022-08-12T13:36:20.937Z,1.38
2022-08-12T13:38:54.239Z,1.45
2022-08-12T13:41:33.507Z,1.50
2022-08-12T13:44:03.051Z,1.65
2022-08-12T13:46:30.763Z,1.70
2022-08-12T13:48:58.677Z,1.50
2022-08-12T13:51:26.888Z,1.65
2022-08-12T13:54:11.773Z,1.40
2022-08-12T13:56:41.913Z,1.45
2022-08-12T13:59:24.416Z,1.90
2022-08-12T14:01:54.327Z,1.60
2022-08-12T14:04:25.020Z,1.50
2022-08-12T14:06:55.048Z,1.30
2022-08-12T14:09:29.647Z,1.60
2022-08-12T14:11:58.613Z,1.45
2022-08-12T14:14:27.024Z,1.50
2022-08-12T14:16:55.085Z,1.63
2022-08-12T14:19:27.130Z,1.35
2022-08-12T14:22:04.769Z,1.38
2022-08-12T14:24:40.552Z,1.50
2022-08-12T14:27:10.774Z,1.20
2022-08-12T14:30:04.967Z,1.50
2022-08-12T14:32:34.183Z,1.50
2022-08-12T14:35:02.931Z,1.40
2022-08-12T14:37:56.044Z,1.33
2022-08-12T14:40:27.513Z,1.50
2022-08-12T14:42:55.508Z,1.20
2022-08-12T14:45:44.525Z,1.40
2022-08-12T14:48:15.165Z,1.27
2022-08-12T14:52:10.295Z,1.30
2022-08-12T14:59:41.995Z,1.60
2022-08-12T15:02:28.399Z,1.55
2022-08-12T15:04:58.882Z,1.70
2022-08-12T15:07:33.474Z,1.48
2022-08-12T15:10:31.170Z,1.50
2022-08-12T15:13:07.674Z,1.50
2022-08-12T15:15:38.531Z,1.40
2022-08-12T15:18:13.835Z,1.30
2022-08-12T15:20:42.240Z,1.30
2022-08-12T15:23:17.619Z,1.40
2022-08-12T15:25:50.335Z,1.42
2022-08-12T15:28:33.386Z,1.50
2022-08-12T15:31:02.206Z,1.10
2022-08-12T15:33:45.449Z,1.58
2022-08-12T15:36:19.436Z,1.30
2022-08-12T15:39:04.146Z,1.70
2022-08-12T15:41:49.993Z,1.58
2022-08-12T15:44:38.423Z,1.45
2022-08-12T15:47:08.609Z,1.60
2022-08-12T15:49:43.144Z,1.58
2022-08-12T15:52:27.529Z,1.40
2022-08-12T15:54:58.775Z,1.52
2022-08-12T15:57:27.587Z,1.40
2022-08-12T16:00:06.912Z,1.10
2022-08-12T16:02:41.962Z,1.50
2022-08-12T16:06:12.267Z,1.55
2022-08-12T16:08:09.419Z,1.40
2022-08-12T16:10:43.197Z,1.40
2022-08-12T16:13:18.028Z,1.20
2022-08-12T16:16:02.076Z,1.20
2022-08-12T16:18:31.255Z,1.45
2022-08-12T16:20:59.024Z,1.30
2022-08-12T16:23:51.747Z,1.20
2022-08-12T16:26:20.286Z,1.20
2022-08-12T16:28:56.030Z,1.30
2022-08-12T16:31:25.865Z,1.20
2022-08-12T16:34:00.242Z,1.45
2022-08-12T16:36:30.283Z,1.02
2022-08-12T16:39:01.403Z,1.20
2022-08-12T16:41:38.223Z,1.20
2022-08-12T16:44:08.521Z,1.40
2022-08-12T16:46:38.089Z,1.20
2022-08-12T16:49:08.948Z,1.55
2022-08-12T16:51:45.956Z,1.30
2022-08-12T16:54:16.070Z,1.15
2022-08-12T16:56:54.861Z,1.15
2022-08-12T16:59:26.193Z,1.20
2022-08-12T17:02:00.603Z,1.13
2022-08-12T17:04:30.105Z,1.08
2022-08-12T17:06:57.874Z,1.20
2022-08-12T17:09:25.750Z,1.20
2022-08-12T17:12:03.007Z,1.40
2022-08-12T17:14:34.380Z,1.27
2022-08-12T17:17:04.638Z,1.20
2022-08-12T17:20:02.562Z,1.50
2022-08-12T17:22:34.436Z,1.15
2022-08-12T17:25:04.136Z,1.15
2022-08-12T17:27:44.807Z,1.20
2022-08-12T17:30:14.033Z,1.10
2022-08-12T17:32:53.146Z,1.10
2022-08-12T17:35:37.278Z,1.15
2022-08-12T17:38:07.104Z,1.10
2022-08-12T17:40:37.015Z,1.20
2022-08-12T17:43:57.873Z,1.27
2022-08-12T17:45:58.944Z,0.90
2022-08-12T17:48:34.661Z,1.20
2022-08-12T17:51:16.197Z,1.17
2022-08-12T17:54:05.682Z,1.00
2022-08-12T17:56:36.754Z,1.05
2022-08-12T17:59:07.650Z,1.00
2022-08-12T18:01:35.891Z,1.15
2022-08-12T18:04:22.117Z,1.38
2022-08-12T18:06:54.008Z,1.10
2022-08-12T18:09:32.329Z,1.00
2022-08-12T18:12:35.370Z,0.90
2022-08-12T18:15:08.530Z,1.40
2022-08-12T18:17:39.489Z,1.17
2022-08-12T18:20:12.580Z,1.25
2022-08-12T18:22:44.642Z,1.20
2022-08-12T18:26:15.643Z,1.30
2022-08-12T18:28:29.062Z,1.40
2022-08-12T18:31:03.111Z,1.42
2022-08-12T18:33:41.558Z,1.15
2022-08-12T18:36:13.759Z,1.45
2022-08-12T18:38:44.983Z,1.48
2022-08-12T18:41:30.636Z,1.20
2022-08-12T18:44:07.816Z,1.52
2022-08-12T18:46:54.469Z,1.30
2022-08-12T18:49:30.372Z,1.42
2022-08-12T18:52:05.257Z,1.27
2022-08-12T18:54:35.942Z,1.20
2022-08-12T18:57:19.988Z,1.98
2022-08-12T19:00:00.316Z,1.58
2022-08-12T19:02:32.688Z,1.38
2022-08-12T19:05:08.707Z,1.52
2022-08-12T19:07:49.877Z,1.20
2022-08-12T19:10:29.221Z,1.45
2022-08-12T19:13:23.324Z,1.23
2022-08-12T19:15:54.102Z,1.20
2022-08-12T19:18:24.246Z,1.23
2022-08-12T19:20:51.952Z,1.17
2022-08-12T19:23:22.251Z,1.15
2022-08-12T19:26:01.518Z,1.13
2022-08-12T19:28:35.247Z,1.00
2022-08-12T19:31:44.834Z,1.67
2022-08-12T19:37:16.973Z,1.20
2022-08-12T19:40:09.520Z,1.42
2022-08-12T19:42:36.967Z,1.13
2022-08-12T19:45:12.187Z,1.20
2022-08-12T19:47:41.349Z,1.30
2022-08-12T19:50:11.405Z,1.50
2022-08-12T19:52:40.976Z,1.40
2022-08-12T19:55:19.485Z,1.55
2022-08-12T19:58:02.726Z,1.17
2022-08-12T20:00:34.711Z,1.30
2022-08-12T20:03:06.920Z,1.40
2022-08-12T20:06:05.767Z,1.20
2022-08-12T20:08:31.478Z,1.40
2022-08-12T20:12:12.791Z,1.35
2022-08-12T20:14:00.545Z,1.67
2022-08-12T20:16:52.608Z,1.40
2022-08-12T20:19:28.532Z,1.33
2022-08-12T20:22:23.545Z,1.35
2022-08-12T20:24:55.351Z,1.35
2022-08-12T20:28:02.947Z,1.50
2022-08-12T20:30:20.178Z,1.90
2022-08-12T20:32:55.829Z,1.60
2022-08-12T20:35:25.069Z,1.70
2022-08-12T20:38:26.836Z,1.80
2022-08-12T20:40:55.431Z,1.88
2022-08-12T20:43:28.434Z,1.48
2022-08-12T20:46:00.050Z,1.50
2022-08-12T20:48:29.933Z,1.60
2022-08-12T20:51:03.993Z,1.70
2022-08-12T20:53:58.434Z,1.45
2022-08-12T20:56:30.530Z,1.90
2022-08-12T20:59:02.434Z,1.70
2022-08-12T21:01:46.510Z,1.77
2022-08-12T21:04:33.175Z,1.50
2022-08-12T21:07:09.632Z,1.58
2022-08-12T21:09:42.387Z,1.73
2022-08-12T21:12:28.508Z,1.50
2022-08-12T21:15:24.211Z,1.55
2022-08-12T21:18:11.094Z,1.60
2022-08-12T21:20:54.724Z,1.70
2022-08-12T21:23:23.240Z,1.63
2022-08-12T21:25:52.588Z,1.80
2022-08-12T21:28:27.736Z,1.70
2022-08-12T21:32:37.728Z,1.67
2022-08-12T21:34:07.280Z,2.03
2022-08-12T21:36:39.660Z,1.73
2022-08-12T21:39:20.760Z,1.60
2022-08-12T21:41:51.408Z,1.52
2022-08-12T21:44:24.442Z,1.83
2022-08-12T21:47:12.146Z,1.90
2022-08-12T21:49:55.246Z,1.70
2022-08-12T21:52:34.065Z,1.77
2022-08-12T21:55:03.159Z,1.60
2022-08-12T21:57:36.431Z,2.00
2022-08-12T22:00:19.636Z,1.70
2022-08-12T22:03:07.885Z,1.70
2022-08-12T22:05:49.825Z,1.40
2022-08-12T22:08:22.400Z,1.80
2022-08-12T22:10:56.368Z,1.80
2022-08-12T22:14:03.057Z,1.60
2022-08-12T22:16:13.181Z,1.80
2022-08-12T22:18:50.210Z,1.58
2022-08-12T22:21:22.293Z,1.75
2022-08-12T22:24:05.366Z,1.90
2022-08-12T22:26:37.428Z,1.52
2022-08-12T22:29:23.861Z,1.80
2022-08-12T22:31:54.909Z,2.00
2022-08-12T22:34:29.566Z,1.83
2022-08-12T22:36:57.955Z,1.55
2022-08-12T22:39:26.550Z,1.67
2022-08-12T22:42:12.231Z,1.58
2022-08-12T22:45:06.112Z,1.92
2022-08-12T22:47:54.719Z,1.65
2022-08-12T22:50:29.416Z,1.58
2022-08-12T22:53:15.103Z,1.48
2022-08-12T22:55:59.269Z,1.50
2022-08-12T22:58:33.751Z,1.63
2022-08-12T23:01:03.433Z,1.58
2022-08-12T23:03:48.787Z,1.55
2022-08-12T23:06:23.064Z,1.40
2022-08-12T23:08:51.597Z,2.00
2022-08-12T23:11:23.823Z,1.70
2022-08-12T23:13:56.718Z,1.60
2022-08-12T23:16:31.051Z,1.40
2022-08-12T23:19:10.991Z,1.90
2022-08-12T23:22:05.620Z,1.88
2022-08-12T23:24:39.416Z,1.70
2022-08-12T23:27:50.448Z,1.65
2022-08-12T23:30:18.387Z,1.98
2022-08-12T23:32:53.937Z,1.75
2022-08-12T23:35:22.563Z,1.52
2022-08-12T23:37:53.857Z,1.80
2022-08-12T23:40:24.352Z,1.75
2022-08-12T23:42:54.015Z,1.77
2022-08-12T23:45:31.493Z,1.75
2022-08-12T23:48:06.983Z,1.52
2022-08-12T23:50:35.175Z,1.80
2022-08-12T23:53:06.413Z,1.70
2022-08-12T23:55:45.478Z,1.92
2022-08-12T23:58:21.854Z,1.63
